KB3MVG-13 Weather Reports


time (UTC)temp
C
wind
direction
speed
KPH
gust
KPH
rain 1hr
cm
rain 24hr
cm
rain mn
cm
humidity
%
barometer
mb
20260906224536 31 0 4.8 16.1 0.00 0.00 0.00 25 1020.6
20260906223516 31 0 9.7 19.3 0.00 0.00 0.00 25 1020.7
20260906222516 31 0 8.0 19.3 0.00 0.00 0.00 25 1020.8
20260906221516 31 0 3.2 12.9 0.00 0.00 0.00 25 1021.0
20260906220516 31 0 4.8 12.9 0.00 0.00 0.00 25 1021.2
20260906215516 31 0 8.0 16.1 0.00 0.00 0.00 25 1021.3
20260906214516 31 0 9.7 22.5 0.00 0.00 0.00 26 1021.4
20260906213516 31 0 12.9 24.1 0.00 0.00 0.00 26 1021.9
20260906212536 31 0 4.8 16.1 0.00 0.00 0.00 25 1022.1
20260906211516 31 0 6.4 16.1 0.00 0.00 0.00 26 1022.3
20260906210516 30 0 9.7 22.5 0.00 0.00 0.00 27 1022.1
20260906205536 30 0 9.7 20.9 0.00 0.00 0.00 26 1022.3
20260906204516 30 0 6.4 16.1 0.00 0.00 0.00 26 1022.8
20260906203516 30 0 8.0 25.7 0.00 0.00 0.00 26 1022.5
20260906202516 30 0 4.8 14.5 0.00 0.00 0.00 27 1022.6
20260906201516 30 0 4.8 16.1 0.00 0.00 0.00 27 1022.6
20260906200536 30 0 8.0 16.1 0.00 0.00 0.00 27 1022.8
20260906195536 29 0 3.2 8.0 0.00 0.00 0.00 28 1022.9
20260906194516 28 0 4.8 17.7 0.00 0.00 0.00 29 1022.6
20260906193516 28 0 11.3 19.3 0.00 0.00 0.00 28 1022.9
20260906192516 29 0 6.4 17.7 0.00 0.00 0.00 27 1023.3
20260906191516 28 0 8.0 16.1 0.00 0.00 0.00 27 1023.4
20260906190516 28 0 8.0 16.1 0.00 0.00 0.00 29 1023.6
20260906185536 28 0 11.3 19.3 0.00 0.00 0.00 27 1023.3
20260906184516 28 0 6.4 14.5 0.00 0.00 0.00 30 1023.6
20260906183536 28 0 4.8 12.9 0.00 0.00 0.00 31 1024.2
20260906182516 27 0 8.0 19.3 0.00 0.00 0.00 34 1023.6
20260906181536 27 0 6.4 17.7 0.00 0.00 0.00 36 1023.8
20260906180516 26 0 6.4 16.1 0.00 0.00 0.00 38 1023.9
20260906175516 26 0 1.6 14.5 0.00 0.00 0.00 39 1024.2
20260906174536 26 0 6.4 12.9 0.00 0.00 0.00 38 1024.4
20260906173516 26 0 6.4 16.1 0.00 0.00 0.00 40 1024.6
20260906172516 26 0 3.2 11.3 0.00 0.00 0.00 41 1024.8
20260906171536 25 0 3.2 8.0 0.00 0.00 0.00 41 1025.1
20260906170516 25 0 1.6 8.0 0.00 0.00 0.00 42 1025.2
20260906165516 25 0 3.2 8.0 0.00 0.00 0.00 43 1025.4
20260906164516 25 0 1.6 9.7 0.00 0.00 0.00 43 1025.8
20260906163516 24 0 3.2 8.0 0.00 0.00 0.00 44 1025.5
20260906162516 23 0 3.2 9.7 0.00 0.00 0.00 46 1025.4
20260906161516 23 0 6.4 9.7 0.00 0.00 0.00 45 1025.3
20260906160536 23 0 3.2 12.9 0.00 0.00 0.00 46 1025.3
20260906155516 23 0 4.8 12.9 0.00 0.00 0.00 45 1025.3
20260906154516 23 0 3.2 6.4 0.00 0.00 0.00 43 1025.3
20260906153516 23 0 3.2 8.0 0.00 0.00 0.00 41 1025.0
20260906152516 22 0 0.0 0.0 0.00 0.00 0.00 40 1025.1
20260906151516 22 0 0.0 0.0 0.00 0.00 0.00 42 1024.6
20260906150536 21 0 0.0 0.0 0.00 0.00 0.00 44 1024.6
20260906145516 20 0 0.0 0.0 0.00 0.00 0.00 46 1024.3
20260906144516 20 0 0.0 0.0 0.00 0.00 0.00 47 1024.3
20260906143556 20 0 1.6 6.4 0.00 0.00 0.00 48 1024.4
20260906142516 20 0.0 4.8 0.00 0.00 0.00 52 1024.5
20260906141516 19 199 0.0 0.0 0.00 0.00 0.00 55 1024.5
20260906140516 18 0.0 3.2 0.00 0.00 0.00 57 1024.5
20260906135516 18 0.0 3.2 0.00 0.00 0.00 54 1024.4
20260906134516 18 0.0 1.6 0.00 0.00 0.00 57 1024.5
20260906133516 17 203 1.6 4.8 0.00 0.00 0.00 59 1024.0
20260906132536 17 268 0.0 0.0 0.00 0.00 0.00 62 1023.8
20260906131516 17 268 0.0 0.0 0.00 0.00 0.00 62 1023.6
20260906130516 17 268 0.0 0.0 0.00 0.00 0.00 61 1023.6
20260906125516 17 268 0.0 0.0 0.00 0.00 0.00 60 1023.8
20260906124516 17 268 0.0 0.0 0.00 0.00 0.00 54 1023.9
20260906123516 17 270 3.2 4.8 0.00 0.00 0.00 60 1024.0
20260906122516 17 0.0 4.8 0.00 0.00 0.00 59 1024.0
20260906121516 17 270 3.2 6.4 0.00 0.00 0.00 56 1024.5
20260906120516 17 274 0.0 0.0 0.00 0.00 0.00 57 1024.5
20260906115516 17 293 3.2 4.8 0.00 0.00 0.00 61 1024.9
20260906114516 18 338 1.6 4.8 0.00 0.00 0.00 64 1025.1
20260906113516 18 0 3.2 9.7 0.00 0.00 0.00 64 1025.1
20260906112515 18 0 1.6 8.0 0.00 0.00 0.00 60 1025.4
20260906111516 18 0 0.0 0.0 0.00 0.00 0.00 50 1024.8
20260906110516 18 0 1.6 6.4 0.00 0.00 0.00 49 1024.7
20260906105515 19 0 4.8 9.7 0.00 0.00 0.00 49 1024.5
20260906104515 19 270 1.6 6.4 0.00 0.00 0.00 46 1024.4
20260906103536 20 277 0.0 0.0 0.00 0.00 0.00 45 1024.5
20260906102516 20 270 4.8 9.7 0.00 0.00 0.00 45 1024.6
20260906101515 20 270 3.2 6.4 0.00 0.00 0.00 44 1024.6
20260906100536 20 315 3.2 4.8 0.00 0.00 0.00 44 1024.2
20260906095516 20 0.0 4.8 0.00 0.00 0.00 43 1024.8
20260906094515 20 0 4.8 11.3 0.00 0.00 0.00 43 1024.8
20260906093516 21 0 6.4 16.1 0.00 0.00 0.00 42 1024.5
20260906092515 21 0 9.7 16.1 0.00 0.00 0.00 41 1024.3
20260906091515 21 0 8.0 17.7 0.00 0.00 0.00 42 1024.7
20260906090515 21 0 9.7 17.7 0.00 0.00 0.00 41 1024.1
20260906085515 21 0 9.7 19.3 0.00 0.00 0.00 41 1024.1
20260906084536 21 0 11.3 17.7 0.00 0.00 0.00 42 1024.4
20260906083516 21 0 11.3 17.7 0.00 0.00 0.00 41 1024.7
20260906082516 21 293 9.7 17.7 0.00 0.00 0.00 40 1024.4
20260906081516 21 0 11.3 20.9 0.00 0.00 0.00 42 1024.8
20260906080516 21 0 14.5 24.1 0.00 0.00 0.00 42 1024.4
20260906075515 22 0 17.7 25.7 0.00 0.00 0.00 41 1024.3
20260906074516 22 0 20.9 30.6 0.00 0.00 0.00 41 1024.2
20260906073515 21 0 20.9 27.4 0.00 0.00 0.00 42 1024.2
20260906072516 22 0 20.9 29.0 0.00 0.00 0.00 42 1024.3
20260906071515 22 0 20.9 29.0 0.00 0.00 0.00 41 1024.3
20260906070515 22 0 22.5 33.8 0.00 0.00 0.00 39 1024.6
20260906065515 22 0 17.7 29.0 0.00 0.00 0.00 41 1024.3
20260906064516 22 0 19.3 30.6 0.00 0.00 0.00 42 1024.3
20260906063516 22 0 20.9 29.0 0.00 0.00 0.00 40 1024.4
20260906062516 22 0 17.7 27.4 0.00 0.00 0.00 41 1024.6
20260906061516 22 0 16.1 27.4 0.00 0.00 0.00 41 1024.6
20260906060515 22 0 16.1 25.7 0.00 0.00 0.00 42 1024.4
20260906055517 22 0 16.1 27.4 0.00 0.00 0.00 43 1024.5
20260906054516 22 0 12.9 25.7 0.00 0.00 0.00 41 1024.6
20260906053517 22 0 17.7 24.1 0.00 0.00 0.00 40 1024.7
20260906052515 23 0 12.9 20.9 0.00 0.00 0.00 40 1024.7
20260906051537 23 0 17.7 27.4 0.00 0.00 0.00 38 1024.7
20260906050517 23 0 14.5 22.5 0.00 0.00 0.00 36 1025.5
20260906045517 24 0 12.9 20.9 0.00 0.00 0.00 35 1025.6
20260906044516 25 0 12.9 20.9 0.00 0.00 0.00 30 1025.4
20260906043516 25 248 12.9 29.0 0.00 0.00 0.00 29 1025.4
20260906042536 25 180 4.8 24.1 0.00 0.00 0.00 28 1025.5
20260906041517 25 0 6.4 19.3 0.00 0.00 0.00 27 1024.9
20260906040517 25 0 3.2 12.9 0.00 0.00 0.00 27 1024.0
20260906035516 25 0.0 3.2 0.00 0.00 0.00 26 1024.2
20260906034517 26 0 8.0 14.5 0.00 0.00 0.00 26 1024.3
20260906033517 26 0 12.9 20.9 0.00 0.00 0.00 25 1024.1
20260906032517 26 0 11.3 17.7 0.00 0.00 0.00 25 1023.6
20260906031516 26 0 14.5 19.3 0.00 0.00 0.00 24 1023.6
20260906030516 26 0 9.7 14.5 0.00 0.00 0.00 24 1023.5
20260906025517 26 0 9.7 16.1 0.00 0.00 0.00 24 1023.3
20260906024517 26 0 8.0 14.5 0.00 0.00 0.00 23 1022.8
20260906023516 26 0 9.7 16.1 0.00 0.00 0.00 23 1022.1
20260906022516 27 0 8.0 12.9 0.00 0.00 0.00 22 1021.9
20260906021517 27 0 6.4 14.5 0.00 0.00 0.00 22 1022.3
20260906020516 27 0 8.0 14.5 0.00 0.00 0.00 21 1022.1
20260906015517 27 0 12.9 19.3 0.00 0.00 0.00 21 1021.6
20260906014516 28 0 11.3 19.3 0.00 0.00 0.00 21 1021.6
20260906013517 28 0 14.5 24.1 0.00 0.00 0.00 20 1021.0
20260906012537 28 0 11.3 17.7 0.00 0.00 0.00 20 1021.0
20260906011517 28 0 9.7 17.7 0.00 0.00 0.00 20 1021.0
20260906010517 29 0 8.0 16.1 0.00 0.00 0.00 19 1020.6
20260906005517 30 0 3.2 6.4 0.00 0.00 0.00 19 1020.7
20260906004517 30 0 3.2 8.0 0.00 0.00 0.00 18 1021.0
20260906003516 30 0 3.2 9.7 0.00 0.00 0.00 17 1021.7
20260906002517 31 0.0 4.8 0.00 0.00 0.00 17 1022.1
20260906001517 31 0 0.0 0.0 0.00 0.00 0.00 17 1022.1
20260906000516 31 0 3.2 8.0 0.00 0.00 0.00 16 1022.4
20260905235516 32 0 1.6 4.8 0.00 0.00 0.00 16 1022.7
20260905234516 32 0 3.2 9.7 0.00 0.00 0.00 16 1022.3
20260905233516 32 0 1.6 8.0 0.00 0.00 0.00 15 1022.2
20260905232556 32 0.0 8.0 0.00 0.00 0.00 16 1022.7
20260905231516 32 0 0.0 0.0 0.00 0.00 0.00 16 1022.7
20260905230517 32 0.0 3.2 0.00 0.00 0.00 16 1022.7
20260905225537 32 0 1.6 4.8 0.00 0.00 0.00 15 1022.6